1889 Hurricane NOT_NAMED (1889244N12305)


IBTrACS version v04r00. Visit IBTrACS website for data access.
Please direct all questions to the IBTrACS Q and A forum

Storm track - Intensity - Wind Radii - Intensity Data - Source Data - All data

Summary Information

Storm ID 1889244N12305
Start Sep 1 00Z
Landfall Sep 14 21Z
Max Intensity 110 kt (Sep 5 12Z), 943 mb (Sep 5 12Z)
End Sep 15 00Z
ATCF IDs ,AL041889
Track status Best track data.

Storm track plot

Map of storm track

Intensity plots

Map of storm track

Radial wind information

No radial wind information for this storm


Position and Intensity Table

BASIN ISO_TIME_________ NATURE LAT LON WMO WIND USA WIND MLC WIND MLC PRES
degrees north degrees east kts kts kts mb
NA 1889-09-01 00:00:00 TS 11.90 -55.00 35 35
NA 03:00:00 TS 12.14 -55.37 37
NA 06:00:00 TS 12.40 -55.70 40 40
NA 09:00:00 TS 12.68 -55.99 42
NA 12:00:00 TS 12.88 -56.14 45 45 35
NA 15:00:00 TS 13.13 -56.48 47 37
NA 18:00:00 TS 13.43 -56.90 50 50 40
NA 21:00:00 TS 13.73 -57.36 52 42
NA 1889-09-02 00:00:00 TS 14.10 -57.90 55 55 45
NA 03:00:00 TS 14.47 -58.47 57 45
NA 06:00:00 TS 14.83 -59.03 60 60 45
NA 09:00:00 TS 15.20 -59.58 62 45
NA 12:00:00 TS 15.53 -60.10 65 65 45
NA 15:00:00 TS 15.79 -60.61 67 47
NA 18:00:00 TS 16.07 -61.10 70 70 50
NA 21:00:00 TS 16.47 -61.58 72 55
NA 1889-09-03 00:00:00 TS 16.87 -62.07 75 75 60
NA 03:00:00 TS 17.13 -62.57 77 65
NA 06:00:00 TS 17.37 -63.07 80 80 70
NA 09:00:00 TS 17.66 -63.55 85 80
NA 12:00:00 TS 17.97 -64.03 90 90 90 985
NA 15:00:00 TS 18.27 -64.57 90 90 983
NA 18:00:00 TS 18.60 -65.10 90 90 90 982
NA 21:00:00 TS 18.98 -65.57 90 90
NA 1889-09-04 00:00:00 TS 19.33 -66.00 90 90 90
NA 03:00:00 TS 19.60 -66.42 90 90
NA 06:00:00 TS 19.83 -66.80 90 90 90
NA 09:00:00 TS 20.08 -67.17 90 92
NA 12:00:00 TS 20.37 -67.50 90 90 95
NA 15:00:00 TS 20.71 -67.79 90 95
NA 18:00:00 TS 21.07 -68.03 90 90 95
NA 21:00:00 TS 21.39 -68.25 90 97
NA 1889-09-05 00:00:00 TS 21.73 -68.43 90 90 100
NA 03:00:00 TS 22.10 -68.59 90 102
NA 06:00:00 TS 22.50 -68.70 90 90 105
NA 09:00:00 TS 22.90 -68.77 90 107
NA 12:00:00 TS 23.37 -68.80 90 90 110 943
NA 15:00:00 TS 23.97 -68.80 90 110
NA 18:00:00 TS 24.60 -68.73 90 90 110
NA 21:00:00 TS 25.13 -68.59 90 110
NA 1889-09-06 00:00:00 TS 25.63 -68.37 90 90 110
NA 03:00:00 TS 26.18 -68.05 90 110
NA 06:00:00 TS 26.73 -67.73 90 90 110
NA 09:00:00 TS 27.31 -67.50 90 107
NA 12:00:00 TS 27.87 -67.37 90 90 105
NA 15:00:00 TS 28.34 -67.38 90 105
NA 18:00:00 TS 28.77 -67.47 90 90 105
NA 21:00:00 TS 29.14 -67.53 90 102
NA 1889-09-07 00:00:00 TS 29.53 -67.60 90 90 100
NA 03:00:00 TS 30.00 -67.66 90 100
NA 06:00:00 TS 30.50 -67.77 90 90 100
NA 09:00:00 TS 31.02 -67.95 90 100
NA 12:00:00 TS 31.50 -68.17 90 90 100
NA 15:00:00 TS 31.88 -68.35 90 100
NA 18:00:00 TS 32.20 -68.50 90 90 100
NA 21:00:00 TS 32.51 -68.62 90 97
NA 1889-09-08 00:00:00 TS 32.80 -68.73 90 90 95
NA 03:00:00 TS 33.08 -68.85 90 95
NA 06:00:00 TS 33.37 -68.97 90 90 95
NA 09:00:00 TS 33.68 -69.09 90 92
NA 12:00:00 TS 33.97 -69.20 90 90 90
NA 15:00:00 TS 34.19 -69.28 90 90
NA 18:00:00 TS 34.40 -69.37 90 90 90
NA 21:00:00 TS 34.64 -69.47 90 90
NA 1889-09-09 00:00:00 TS 34.90 -69.60 90 90 90
NA 03:00:00 TS 35.15 -69.75 90 90
NA 06:00:00 TS 35.40 -69.90 90 90 90
NA 09:00:00 TS 35.66 -70.00 90 90
NA 12:00:00 TS 35.90 -70.10 90 90 90
NA 15:00:00 TS 36.10 -70.23 90 90
NA 18:00:00 TS 36.27 -70.37 90 90 90
NA 21:00:00 TS 36.41 -70.47 87 87
NA 1889-09-10 00:00:00 TS 36.53 -70.57 85 85 85
NA 03:00:00 TS 36.65 -70.67 82 82
NA 06:00:00 TS 36.77 -70.77 80 80 80
NA 09:00:00 TS 36.91 -70.84 80 80
NA 12:00:00 TS 37.07 -70.93 80 80 80
NA 15:00:00 TS 37.21 -71.09 77 77
NA 18:00:00 TS 37.33 -71.27 75 75 75
NA 21:00:00 TS 37.44 -71.44 72 72
NA 1889-09-11 00:00:00 TS 37.53 -71.63 70 70 70
NA 03:00:00 TS 37.63 -71.86 70 70
NA 06:00:00 TS 37.73 -72.10 70 70 70
NA 09:00:00 TS 37.84 -72.33 67 67
NA 12:00:00 TS 37.93 -72.53 65 65 65
NA 15:00:00 TS 38.01 -72.68 62 65
NA 18:00:00 TS 38.07 -72.80 60 60 65
NA 21:00:00 TS 38.12 -72.93 57 65
NA 1889-09-12 00:00:00 TS 38.13 -73.07 55 55 65
NA 03:00:00 TS 38.09 -73.23 50 65
NA 06:00:00 TS 38.00 -73.40 45 45 65
NA 09:00:00 TS 37.91 -73.55 42 65
NA 12:00:00 TS 37.78 -73.70 40 40 65
NA 15:00:00 TS 37.66 -73.86 37 65
NA 18:00:00 TS 37.67 -73.97 35 35 65
NA 21:00:00 TS 38.06 -73.82 65
NA 1889-09-13 00:00:00 TS 38.10 -73.90 65
NA 03:00:00 TS 38.11 -73.92 62
NA 06:00:00 TS 38.10 -73.90 60
NA 09:00:00 TS 38.12 -73.83 57
NA 12:00:00 TS 38.10 -73.80 55
NA 15:00:00 TS 37.97 -73.93 52
NA 18:00:00 TS 37.80 -74.10 50
NA 21:00:00 TS 37.65 -74.20 47
NA 1889-09-14 00:00:00 TS 37.50 -74.30 45
NA 03:00:00 TS 37.34 -74.45 45
NA 06:00:00 TS 37.20 -74.60 45
NA 09:00:00 TS 37.10 -74.65 42
NA 12:00:00 TS 37.00 -74.80 40
NA 15:00:00 TS 36.85 -75.24 37
NA 18:00:00 TS 36.70 -75.80 35
NA 21:00:00 TS 36.59 -76.32 32
NA 1889-09-15 00:00:00 TS 36.50 -76.80 30

Source Information

Agency Information
USA hurdat2-1851-2018-051019.txt:Line=6419:UNNAMED
TOKYO
CMA
HKO
NEWDELHI
REUNION
BOM
NADI
WELLINGTON
DS824
TD9636
TD9635
NEUMANN
MLC

All available IBTrACS Data

SEASON BASIN SUBBASIN ISO_TIME_________ NATURE LAT LON WMO WIND WMO AGENCY DIST2LAND LANDFALL IFLAG USA AGENCY USA ATCF_ID USA LAT USA LON USA STATUS USA WIND USA SSHS MLC LAT MLC LON MLC CLASS MLC WIND MLC PRES STORM SPEED STORM DIR
Year degrees north degrees east kts km km degrees north degrees east kts 1 degrees north degrees east kts mb kts degrees
1889 NA NA 1889-09-01 00:00:00 TS 11.90 -55.00 35 hurdat_atl 618 611 O_____________ hurdat_atl AL041889 11.90 -55.00 TS 35 0 9 304
1889 NA NA 03:00:00 TS 12.14 -55.37 605 605 P_____________ AL041889 12.14 -55.37 TS 37 0 9 306
1889 NA NA 06:00:00 TS 12.40 -55.70 40 hurdat_atl 608 589 O_____________ hurdat_atl AL041889 12.40 -55.70 TS 40 0 8 312
1889 NA NA 09:00:00 TS 12.68 -55.99 589 583 P_____________ AL041889 12.68 -55.99 TS 42 0 6 318
1889 NA NA 12:00:00 TS 12.88 -56.14 45 hurdat_atl 587 558 O____________O hurdat_atl AL041889 13.00 -56.30 TS 45 0 11.90 -54.90 TS 35 7 313
1889 NA NA 15:00:00 TS 13.13 -56.48 558 538 P____________P AL041889 13.34 -56.72 TS 47 0 12.30 -55.50 TS 37 9 307
1889 NA NA 18:00:00 TS 13.43 -56.90 50 hurdat_atl 538 524 O____________O hurdat_atl AL041889 13.70 -57.20 TS 50 0 12.70 -56.10 TS 40 10 305
1889 NA NA 21:00:00 TS 13.73 -57.36 515 507 P____________P AL041889 14.05 -57.69 TS 52 0 13.10 -56.70 TS 42 12 305
1889 NA NA 1889-09-02 00:00:00 TS 14.10 -57.90 55 hurdat_atl 508 498 O____________O hurdat_atl AL041889 14.40 -58.20 TS 55 0 13.50 -57.30 TS 45 13 304
1889 NA NA 03:00:00 TS 14.47 -58.47 504 498 P____________P AL041889 14.76 -58.75 TS 57 0 13.89 -57.90 TS 45 13 304
1889 NA NA 06:00:00 TS 14.83 -59.03 60 hurdat_atl 507 507 O____________O hurdat_atl AL041889 15.10 -59.30 TS 60 0 14.30 -58.50 TS 45 13 304
1889 NA NA 09:00:00 TS 15.20 -59.58 526 526 P____________P AL041889 15.42 -59.81 TS 62 0 14.75 -59.12 TS 45 12 304
1889 NA CS 12:00:00 TS 15.53 -60.10 65 hurdat_atl 546 546 O____________O hurdat_atl AL041889 15.70 -60.30 HU 65 1 15.20 -59.70 TS 45 12 301
1889 NA CS 15:00:00 TS 15.79 -60.61 572 537 P____________P AL041889 15.88 -60.80 HU 67 1 15.61 -60.22 TS 47 11 299
1889 NA CS 18:00:00 TS 16.07 -61.10 70 hurdat_atl 532 470 O____________O hurdat_atl AL041889 16.10 -61.30 HU 70 1 16.00 -60.70 TS 50 12 306
1889 NA CS 21:00:00 TS 16.47 -61.58 465 412 P____________P AL041889 16.49 -61.81 HU 72 1 16.42 -61.14 TS 55 12 311
1889 NA CS 1889-09-03 00:00:00 TS 16.87 -62.07 75 hurdat_atl 398 350 O____________O hurdat_atl AL041889 16.90 -62.30 HU 75 1 16.80 -61.60 TS 60 12 305
1889 NA CS 03:00:00 TS 17.13 -62.57 340 289 P____________P AL041889 17.16 -62.77 HU 77 1 17.06 -62.17 TS 65 11 298
1889 NA CS 06:00:00 TS 17.37 -63.07 80 hurdat_atl 279 232 O____________O hurdat_atl AL041889 17.40 -63.20 HU 80 1 17.30 -62.80 HU 70 11 299
1889 NA CS 09:00:00 TS 17.66 -63.55 229 172 P____________P AL041889 17.68 -63.59 HU 85 2 17.60 -63.45 HU 80 11 303
1889 NA CS 12:00:00 TS 17.97 -64.03 90 hurdat_atl 170 116 O____________O hurdat_atl AL041889 18.00 -64.00 HU 90 2 17.90 -64.10 HU 90 985 12 302
1889 NA CS 15:00:00 TS 18.27 -64.57 105 57 P____________P AL041889 18.34 -64.49 HU 90 2 18.14 -64.75 HU 90 983 12 302
1889 NA CS 18:00:00 TS 18.60 -65.10 90 hurdat_atl 57 46 O____________O hurdat_atl AL041889 18.70 -65.00 HU 90 2 18.40 -65.30 HU 90 982 12 307
1889 NA NA 21:00:00 TS 18.98 -65.57 67 67 P____________P AL041889 19.06 -65.51 HU 90 2 18.80 -65.68 HU 90 11 311
1889 NA NA 1889-09-04 00:00:00 TS 19.33 -66.00 90 hurdat_atl 100 100 O____________O hurdat_atl AL041889 19.40 -66.00 HU 90 2 19.20 -66.00 HU 90 10 308
1889 NA NA 03:00:00 TS 19.60 -66.42 134 134 P____________P AL041889 19.66 -66.42 HU 90 2 19.48 -66.40 HU 90 9 304
1889 NA NA 06:00:00 TS 19.83 -66.80 90 hurdat_atl 156 156 O____________O hurdat_atl AL041889 19.90 -66.80 HU 90 2 19.70 -66.80 HU 90 9 304
1889 NA NA 09:00:00 TS 20.08 -67.17 190 190 P____________P AL041889 20.19 -67.17 HU 90 2 19.87 -67.18 HU 92 8 309
1889 NA NA 12:00:00 TS 20.37 -67.50 90 hurdat_atl 212 207 O____________O hurdat_atl AL041889 20.50 -67.50 HU 90 2 20.10 -67.50 HU 95 9 317
1889 NA NA 15:00:00 TS 20.71 -67.79 221 221 P____________P AL041889 20.80 -67.82 HU 90 2 20.52 -67.72 HU 95 9 325
1889 NA NA 18:00:00 TS 21.07 -68.03 90 hurdat_atl 242 237 O____________O hurdat_atl AL041889 21.10 -68.10 HU 90 2 21.00 -67.90 HU 95 8 328
1889 NA NA 21:00:00 TS 21.39 -68.25 256 256 P____________P AL041889 21.39 -68.33 HU 90 2 21.40 -68.10 HU 97 8 331
1889 NA NA 1889-09-05 00:00:00 TS 21.73 -68.43 90 hurdat_atl 284 284 O____________O hurdat_atl AL041889 21.70 -68.50 HU 90 2 21.80 -68.30 MH 100 8 336
1889 NA NA 03:00:00 TS 22.10 -68.59 315 315 P____________P AL041889 22.03 -68.63 HU 90 2 22.25 -68.51 MH 102 8 342
1889 NA NA 06:00:00 TS 22.50 -68.70 90 hurdat_atl 351 351 O____________O hurdat_atl AL041889 22.40 -68.70 HU 90 2 22.70 -68.70 MH 105 8 348
1889 NA NA 09:00:00 TS 22.90 -68.77 389 389 P____________P AL041889 22.80 -68.73 HU 90 2 23.10 -68.87 MH 107 9 354
1889 NA NA 12:00:00 TS 23.37 -68.80 90 hurdat_atl 442 442 O____________O hurdat_atl AL041889 23.30 -68.70 HU 90 2 23.50 -69.00 MH 110 943 11 359
1889 NA NA 15:00:00 TS 23.97 -68.80 504 504 P____________P AL041889 23.98 -68.64 HU 90 2 23.94 -69.12 MH 110 12 3
1889 NA NA 18:00:00 TS 24.60 -68.73 90 hurdat_atl 571 571 O____________O hurdat_atl AL041889 24.70 -68.50 HU 90 2 24.40 -69.20 MH 110 12 9
1889 NA NA 21:00:00 TS 25.13 -68.59 626 626 P____________P AL041889 25.26 -68.26 HU 90 2 24.85 -69.26 MH 110 11 18
1889 NA NA 1889-09-06 00:00:00 TS 25.63 -68.37 90 hurdat_atl 679 679 O____________O hurdat_atl AL041889 25.80 -67.90 HU 90 2 25.30 -69.30 MH 110 12 25
1889 NA NA 03:00:00 TS 26.18 -68.05 748 748 P____________P AL041889 26.39 -67.40 HU 90 2 25.76 -69.35 MH 110 12 27
1889 NA NA 06:00:00 TS 26.73 -67.73 90 hurdat_atl 816 816 O____________O hurdat_atl AL041889 27.00 -66.90 HU 90 2 26.20 -69.40 MH 110 12 23
1889 NA NA 09:00:00 TS 27.31 -67.50 880 880 P____________P AL041889 27.67 -66.53 HU 90 2 26.60 -69.44 MH 107 12 16
1889 NA NA 12:00:00 TS 27.87 -67.37 90 hurdat_atl 938 938 O____________O hurdat_atl AL041889 28.30 -66.30 HU 90 2 27.00 -69.50 MH 105 10 6
1889 NA NA 15:00:00 TS 28.34 -67.38 973 973 P____________P AL041889 28.79 -66.25 HU 90 2 27.44 -69.64 MH 105 9 355
1889 NA NA 18:00:00 TS 28.77 -67.47 90 hurdat_atl 1013 1013 O____________O hurdat_atl AL041889 29.20 -66.30 HU 90 2 27.90 -69.80 MH 105 8 351
1889 NA NA 21:00:00 TS 29.14 -67.53 1041 1014 P____________P AL041889 29.54 -66.34 HU 90 2 28.35 -69.90 MH 102 8 351
1889 NA NA 1889-09-07 00:00:00 TS 29.53 -67.60 90 hurdat_atl 1014 972 O____________O hurdat_atl AL041889 29.90 -66.40 HU 90 2 28.80 -70.00 MH 100 9 352
1889 NA NA 03:00:00 TS 30.00 -67.66 972 927 P____________P AL041889 30.37 -66.42 HU 90 2 29.26 -70.15 MH 100 10 352
1889 NA NA 06:00:00 TS 30.50 -67.77 90 hurdat_atl 927 883 O____________O hurdat_atl AL041889 30.90 -66.50 HU 90 2 29.70 -70.30 MH 100 11 346
1889 NA NA 09:00:00 TS 31.02 -67.95 876 826 P____________P AL041889 31.48 -66.73 HU 90 2 30.10 -70.41 MH 100 11 341
1889 NA NA 12:00:00 TS 31.50 -68.17 90 hurdat_atl 826 792 O____________O hurdat_atl AL041889 32.00 -67.00 HU 90 2 30.50 -70.50 MH 100 9 339
1889 NA NA 15:00:00 TS 31.88 -68.35 792 758 P____________P AL041889 32.34 -67.22 HU 90 2 30.95 -70.61 MH 100 8 338
1889 NA NA 18:00:00 TS 32.20 -68.50 90 hurdat_atl 758 732 O____________O hurdat_atl AL041889 32.60 -67.40 HU 90 2 31.40 -70.70 MH 100 7 339
1889 NA NA 21:00:00 TS 32.51 -68.62 732 707 P____________P AL041889 32.86 -67.56 HU 90 2 31.80 -70.76 MH 97 6 342
1889 NA NA 1889-09-08 00:00:00 TS 32.80 -68.73 90 hurdat_atl 707 682 O____________O hurdat_atl AL041889 33.10 -67.70 HU 90 2 32.20 -70.80 HU 95 6 342
1889 NA NA 03:00:00 TS 33.08 -68.85 674 650 P____________P AL041889 33.30 -67.85 HU 90 2 32.65 -70.85 HU 95 6 341
1889 NA NA 06:00:00 TS 33.37 -68.97 90 hurdat_atl 650 628 O____________O hurdat_atl AL041889 33.50 -68.00 HU 90 2 33.10 -70.90 HU 95 6 342
1889 NA NA 09:00:00 TS 33.68 -69.09 628 607 P____________P AL041889 33.76 -68.16 HU 90 2 33.51 -70.95 HU 92 6 342
1889 NA NA 12:00:00 TS 33.97 -69.20 90 hurdat_atl 607 590 O____________O hurdat_atl AL041889 34.00 -68.30 HU 90 2 33.90 -71.00 HU 90 5 342
1889 NA NA 15:00:00 TS 34.19 -69.28 590 575 P____________P AL041889 34.16 -68.40 HU 90 2 34.26 -71.05 HU 90 5 342
1889 NA NA 18:00:00 TS 34.40 -69.37 90 hurdat_atl 575 560 O____________O hurdat_atl AL041889 34.30 -68.50 HU 90 2 34.60 -71.10 HU 90 5 341
1889 NA NA 21:00:00 TS 34.64 -69.47 560 543 P____________P AL041889 34.49 -68.64 HU 90 2 34.95 -71.15 HU 90 5 339
1889 NA NA 1889-09-09 00:00:00 TS 34.90 -69.60 90 hurdat_atl 543 529 O____________O hurdat_atl AL041889 34.70 -68.80 HU 90 2 35.30 -71.20 HU 90 6 336
1889 NA NA 03:00:00 TS 35.15 -69.75 519 507 P____________P AL041889 34.90 -69.00 HU 90 2 35.65 -71.26 HU 90 6 334
1889 NA NA 06:00:00 TS 35.40 -69.90 90 hurdat_atl 507 495 O____________O hurdat_atl AL041889 35.10 -69.20 HU 90 2 36.00 -71.30 HU 90 6 338
1889 NA NA 09:00:00 TS 35.66 -70.00 495 485 P____________P AL041889 35.29 -69.36 HU 90 2 36.39 -71.29 HU 90 5 342
1889 NA NA 12:00:00 TS 35.90 -70.10 90 hurdat_atl 485 476 O____________O hurdat_atl AL041889 35.50 -69.50 HU 90 2 36.70 -71.30 HU 90 5 337
1889 NA NA 15:00:00 TS 36.10 -70.23 477 459 P____________P AL041889 35.76 -69.66 HU 90 2 36.79 -71.39 HU 90 4 329
1889 NA NA 18:00:00 TS 36.27 -70.37 90 hurdat_atl 460 453 O____________O hurdat_atl AL041889 36.00 -69.80 HU 90 2 36.80 -71.50 HU 90 4 328
1889 NA NA 21:00:00 TS 36.41 -70.47 453 444 P____________P AL041889 36.16 -69.91 HU 87 2 36.90 -71.60 HU 87 3 329
1889 NA NA 1889-09-10 00:00:00 TS 36.53 -70.57 85 hurdat_atl 444 431 O____________O hurdat_atl AL041889 36.30 -70.00 HU 85 2 37.00 -71.70 HU 85 3 326
1889 NA NA 03:00:00 TS 36.65 -70.67 431 413 P____________P AL041889 36.44 -70.10 HU 82 1 37.06 -71.81 HU 82 3 326
1889 NA NA 06:00:00 TS 36.77 -70.77 80 hurdat_atl 413 408 O____________O hurdat_atl AL041889 36.60 -70.20 HU 80 1 37.10 -71.90 HU 80 3 333
1889 NA NA 09:00:00 TS 36.91 -70.84 408 391 P____________P AL041889 36.79 -70.29 HU 80 1 37.16 -71.94 HU 80 3 337
1889 NA NA 12:00:00 TS 37.07 -70.93 80 hurdat_atl 391 371 O____________O hurdat_atl AL041889 37.00 -70.40 HU 80 1 37.20 -72.00 HU 80 4 327
1889 NA NA 15:00:00 TS 37.21 -71.09 371 351 P____________P AL041889 37.21 -70.54 HU 77 1 37.21 -72.19 HU 77 4 315
1889 NA NA 18:00:00 TS 37.33 -71.27 75 hurdat_atl 351 339 O____________O hurdat_atl AL041889 37.40 -70.70 HU 75 1 37.20 -72.40 HU 75 4 309
1889 NA NA 21:00:00 TS 37.44 -71.44 339 318 P____________P AL041889 37.56 -70.89 HU 72 1 37.20 -72.55 HU 72 4 304
1889 NA NA 1889-09-11 00:00:00 TS 37.53 -71.63 70 hurdat_atl 318 298 O____________O hurdat_atl AL041889 37.70 -71.10 HU 70 1 37.20 -72.70 HU 70 4 300
1889 NA NA 03:00:00 TS 37.63 -71.86 290 270 P____________P AL041889 37.85 -71.34 HU 70 1 37.20 -72.90 HU 70 4 298
1889 NA NA 06:00:00 TS 37.73 -72.10 70 hurdat_atl 270 250 O____________O hurdat_atl AL041889 38.00 -71.60 HU 70 1 37.20 -73.10 HU 70 4 299
1889 NA NA 09:00:00 TS 37.84 -72.33 250 231 P____________P AL041889 38.16 -71.86 HU 67 1 37.19 -73.28 HU 67 4 300
1889 NA NA 12:00:00 TS 37.93 -72.53 65 hurdat_atl 231 211 O____________O hurdat_atl AL041889 38.30 -72.10 HU 65 1 37.20 -73.40 HU 65 3 302
1889 NA NA 15:00:00 TS 38.01 -72.68 211 198 P____________P AL041889 38.37 -72.31 HU 62 0 37.28 -73.42 HU 65 2 303
1889 NA NA 18:00:00 TS 38.07 -72.80 60 hurdat_atl 198 191 O____________O hurdat_atl AL041889 38.40 -72.50 TS 60 0 37.40 -73.40 HU 65 2 299
1889 NA NA 21:00:00 TS 38.12 -72.93 191 175 P____________P AL041889 38.43 -72.69 TS 57 0 37.50 -73.40 HU 65 2 288
1889 NA NA 1889-09-12 00:00:00 TS 38.13 -73.07 55 hurdat_atl 175 167 O____________O hurdat_atl AL041889 38.40 -72.90 TS 55 0 37.60 -73.40 HU 65 2 263
1889 NA NA 03:00:00 TS 38.09 -73.23 167 151 P____________P AL041889 38.28 -73.14 TS 50 0 37.71 -73.40 HU 65 3 243
1889 NA NA 06:00:00 TS 38.00 -73.40 45 hurdat_atl 151 143 O____________O hurdat_atl AL041889 38.10 -73.40 TS 45 0 37.80 -73.40 HU 65 3 234
1889 NA NA 09:00:00 TS 37.91 -73.55 138 134 P____________P AL041889 37.93 -73.64 TS 42 0 37.86 -73.38 HU 65 3 227
1889 NA NA 12:00:00 TS 37.78 -73.70 40 hurdat_atl 134 124 O____________O hurdat_atl AL041889 37.70 -73.90 TS 40 0 37.90 -73.40 HU 65 3 225
1889 NA NA 15:00:00 TS 37.66 -73.86 124 117 P____________P AL041889 37.38 -74.19 TS 37 0 37.95 -73.53 HU 65 2 241
1889 NA NA 18:00:00 TS 37.67 -73.97 35 hurdat_atl 117 109 O____________O hurdat_atl AL041889 37.00 -74.50 TS 35 0 38.00 -73.70 HU 65 4 6
1889 NA NA 21:00:00 TS 38.06 -73.82 115 106 _____________P AL041889 TS -1 38.06 -73.82 HU 65 4 7
1889 NA NA 1889-09-13 00:00:00 TS 38.10 -73.90 106 106 _____________O 38.10 -73.90 HU 65 1 301
1889 NA NA 03:00:00 TS 38.11 -73.92 106 106 _____________P 38.11 -73.92 HU 62 0 0
1889 NA NA 06:00:00 TS 38.10 -73.90 106 106 _____________O 38.10 -73.90 TS 60 1 79
1889 NA NA 09:00:00 TS 38.12 -73.83 115 115 _____________P 38.12 -73.83 TS 57 1 90
1889 NA NA 12:00:00 TS 38.10 -73.80 115 109 _____________O 38.10 -73.80 TS 55 2 207
1889 NA NA 15:00:00 TS 37.97 -73.93 109 103 _____________P 37.97 -73.93 TS 52 4 218
1889 NA NA 18:00:00 TS 37.80 -74.10 103 103 _____________O 37.80 -74.10 TS 50 4 214
1889 NA NA 21:00:00 TS 37.65 -74.20 110 103 _____________P 37.65 -74.20 TS 47 3 207
1889 NA NA 1889-09-14 00:00:00 TS 37.50 -74.30 110 106 _____________O 37.50 -74.30 TS 45 4 213
1889 NA NA 03:00:00 TS 37.34 -74.45 104 102 _____________P 37.34 -74.45 TS 45 4 218
1889 NA NA 06:00:00 TS 37.20 -74.60 102 102 _____________O 37.20 -74.60 TS 45 3 213
1889 NA NA 09:00:00 TS 37.10 -74.65 106 97 _____________P 37.10 -74.65 TS 42 3 219
1889 NA NA 12:00:00 TS 37.00 -74.80 97 65 _____________O 37.00 -74.80 TS 40 5 242
1889 NA NA 15:00:00 TS 36.85 -75.24 65 14 _____________P 36.85 -75.24 TS 37 9 249
1889 NA NA 18:00:00 TS 36.70 -75.80 14 0 _____________O 36.70 -75.80 TS 35 9 253
1889 NA NA 21:00:00 TS 36.59 -76.32 0 0 _____________P 36.59 -76.32 TS 32 8 256
1889 NA NA 1889-09-15 00:00:00 TS 36.50 -76.80 0 _____________O 36.50 -76.80 TD 30 8 257